Time;durP1;ratioP1;P1;durP2;ratioP2;P2;SDS_P1;SDS_P2;PMS_P1;PMS_P2;Temp;Humidity;BMP_temperature;BMP_pressure;BME280_temperature;BME280_humidity;BME280_pressure;Samples;Min_cycle;Max_cycle;Signal;HPM_P1;HPM_P2
2023/07/10 00:00:59;;;;;;;19.27;14.63;;;;;;;23.02;94.07;101388.53;5034957;28;20114;-63
2023/07/10 00:03:24;;;;;;;22.27;15.18;;;;;;;23.00;94.41;101387.75;5037717;28;20037;-62
2023/07/10 00:05:50;;;;;;;18.23;14.63;;;;;;;22.98;94.45;101392.25;5045543;28;20072;-62
2023/07/10 00:08:15;;;;;;;21.85;15.85;;;;;;;22.97;94.59;101395.81;5038151;28;20821;-62
2023/07/10 00:10:40;;;;;;;24.60;17.98;;;;;;;22.99;94.56;101401.84;5040072;28;20037;-62
2023/07/10 00:13:10;;;;;;;26.35;18.70;;;;;;;23.02;94.71;101399.06;5034695;28;20091;-62
2023/07/10 00:15:36;;;;;;;22.05;16.50;;;;;;;23.02;94.38;101397.28;5039375;28;20045;-62
2023/07/10 00:18:01;;;;;;;20.13;15.82;;;;;;;23.03;94.37;101400.78;5036990;28;20040;-62
2023/07/10 00:20:27;;;;;;;21.13;16.88;;;;;;;23.02;94.38;101392.00;5034725;28;20576;-62
2023/07/10 00:22:54;;;;;;;24.33;19.60;;;;;;;23.01;94.53;101394.72;5035795;28;20037;-62
2023/07/10 00:25:20;;;;;;;24.90;18.85;;;;;;;23.03;94.51;101406.06;5039123;28;20107;-62
2023/07/10 00:27:49;;;;;;;25.13;19.13;;;;;;;23.05;94.16;101394.50;5038867;28;20698;-62
2023/07/10 00:30:18;;;;;;;22.80;17.38;;;;;;;23.07;94.18;101395.28;5037189;28;20808;-62
2023/07/10 00:32:45;;;;;;;20.08;15.73;;;;;;;23.09;94.21;101395.22;5040381;28;20052;-62
2023/07/10 00:35:16;;;;;;;20.92;16.42;;;;;;;23.09;94.46;101392.56;5038270;28;20471;-62
2023/07/10 00:37:44;;;;;;;19.42;16.30;;;;;;;23.10;94.39;101397.75;5027095;28;20024;-62
2023/07/10 00:40:22;;;;;;;22.77;16.63;;;;;;;23.09;94.41;101395.22;5036262;28;20159;-62
2023/07/10 00:43:04;;;;;;;20.50;15.85;;;;;;;23.10;94.26;101391.63;5038428;28;20048;-62
2023/07/10 00:45:30;;;;;;;22.73;18.27;;;;;;;23.10;94.59;101391.63;5034921;28;20056;-62
2023/07/10 00:48:12;;;;;;;21.80;19.13;;;;;;;23.10;94.70;101400.38;5040733;28;20033;-62
2023/07/10 00:50:45;;;;;;;24.08;20.52;;;;;;;23.08;94.78;101407.53;5034736;28;20581;-62
2023/07/10 00:53:25;;;;;;;21.02;18.77;;;;;;;23.07;94.93;101404.97;5033106;28;20041;-63
2023/07/10 00:55:53;;;;;;;26.60;21.35;;;;;;;23.07;95.05;101399.69;5034705;28;20482;-62
2023/07/10 00:58:31;;;;;;;26.60;19.70;;;;;;;23.04;95.37;101400.69;5035086;28;20079;-62
2023/07/10 01:01:15;;;;;;;26.40;19.48;;;;;;;23.04;95.51;101405.09;5031129;28;20044;-62
2023/07/10 01:03:42;;;;;;;27.25;22.05;;;;;;;23.01;95.85;101406.13;5040426;28;20096;-62
2023/07/10 01:06:11;;;;;;;30.05;21.02;;;;;;;23.01;95.88;101399.97;5041400;28;20145;-62
2023/07/10 01:08:39;;;;;;;24.98;19.95;;;;;;;23.02;95.86;101396.44;5035765;28;20047;-62
2023/07/10 01:11:05;;;;;;;23.45;19.60;;;;;;;23.01;95.95;101400.84;5036482;28;20102;-62
2023/07/10 01:13:31;;;;;;;27.90;23.85;;;;;;;23.00;95.95;101403.56;5033679;28;20429;-62
2023/07/10 01:15:57;;;;;;;26.27;21.98;;;;;;;22.98;95.75;101402.81;5033975;28;20043;-62
2023/07/10 01:18:24;;;;;;;29.42;19.85;;;;;;;22.96;95.34;101405.50;5034033;28;20033;-62
2023/07/10 01:21:10;;;;;;;29.33;20.73;;;;;;;22.92;94.93;101407.44;5052857;28;20045;-62
2023/07/10 01:23:36;;;;;;;25.35;19.88;;;;;;;22.90;95.21;101408.44;5032918;28;20149;-61
2023/07/10 01:26:03;;;;;;;27.33;19.75;;;;;;;22.90;94.93;101411.06;5035429;28;20028;-62
2023/07/10 01:28:33;;;;;;;25.33;17.98;;;;;;;22.90;94.83;101411.06;5037308;28;20053;-62
2023/07/10 01:31:00;;;;;;;23.85;17.38;;;;;;;22.90;94.68;101403.16;5036773;28;20096;-62
2023/07/10 01:33:31;;;;;;;20.65;17.40;;;;;;;22.88;94.53;101403.25;5039464;28;20139;-62
2023/07/10 01:36:00;;;;;;;22.80;17.02;;;;;;;22.87;94.60;101392.78;5034528;28;20037;-62
2023/07/10 01:38:34;;;;;;;25.88;19.80;;;;;;;22.85;94.46;101389.38;5035957;28;20048;-62
2023/07/10 01:41:05;;;;;;;28.85;19.67;;;;;;;22.84;94.42;101393.78;5034766;28;20036;-62
2023/07/10 01:43:30;;;;;;;20.13;17.25;;;;;;;22.85;94.35;101397.28;5037155;28;20036;-62
2023/07/10 01:45:56;;;;;;;16.05;14.02;;;;;;;22.85;94.72;101410.47;5032319;28;20130;-62
2023/07/10 01:48:25;;;;;;;17.65;14.80;;;;;;;22.86;94.45;101414.78;5041175;28;20045;-62
2023/07/10 01:50:51;;;;;;;18.75;14.07;;;;;;;22.89;94.23;101412.00;5038348;28;20400;-62
2023/07/10 01:53:17;;;;;;;21.38;17.50;;;;;;;22.88;93.84;101407.66;5037148;28;20032;-61
2023/07/10 01:55:45;;;;;;;24.00;17.95;;;;;;;22.86;93.57;101414.78;5038496;28;20068;-62
2023/07/10 01:58:12;;;;;;;28.90;18.63;;;;;;;22.84;93.30;101414.88;5038629;28;20048;-62
2023/07/10 02:00:38;;;;;;;21.88;17.88;;;;;;;22.84;93.38;101419.28;5037859;28;20059;-62
2023/07/10 02:03:04;;;;;;;27.90;20.30;;;;;;;22.84;93.56;101427.19;5037999;28;20515;-62
2023/07/10 02:05:29;;;;;;;24.50;18.73;;;;;;;22.82;93.93;101436.97;5032992;28;20040;-61
2023/07/10 02:07:55;;;;;;;30.50;22.77;;;;;;;22.81;94.76;101435.25;5036821;28;20744;-61
2023/07/10 02:10:20;;;;;;;33.65;23.65;;;;;;;22.77;95.75;101442.44;5039918;28;20067;-60
2023/07/10 02:12:45;;;;;;;37.22;27.52;;;;;;;22.70;96.08;101446.31;5039031;28;20047;-61
2023/07/10 02:15:11;;;;;;;40.13;28.85;;;;;;;22.64;96.23;101446.59;5035613;28;20133;-61
2023/07/10 02:17:36;;;;;;;42.70;30.83;;;;;;;22.60;96.19;101447.66;5037756;28;20048;-61
2023/07/10 02:20:02;;;;;;;46.08;28.98;;;;;;;22.56;96.19;101440.81;5043193;28;20123;-61
2023/07/10 02:22:27;;;;;;;38.53;26.63;;;;;;;22.54;96.23;101441.81;5039680;28;20120;-61
2023/07/10 02:24:53;;;;;;;34.83;26.75;;;;;;;22.51;95.96;101437.56;5037826;28;20083;-61
2023/07/10 02:27:18;;;;;;;37.88;27.30;;;;;;;22.45;95.39;101448.38;5041831;28;20071;-61
2023/07/10 02:29:44;;;;;;;34.88;24.65;;;;;;;22.41;95.12;101446.84;5036386;28;20599;-60
2023/07/10 02:32:10;;;;;;;36.10;25.23;;;;;;;22.38;95.00;101435.56;5044040;28;20505;-61
2023/07/10 02:34:35;;;;;;;47.22;30.77;;;;;;;22.31;94.86;101441.09;5048763;28;20044;-61
2023/07/10 02:37:00;;;;;;;37.60;28.50;;;;;;;22.27;95.26;101441.28;5037779;28;20041;-61
2023/07/10 02:39:26;;;;;;;44.67;29.05;;;;;;;22.24;94.84;101438.81;5043836;28;20073;-61
2023/07/10 02:41:51;;;;;;;35.67;26.95;;;;;;;22.24;95.11;101446.69;5043824;28;20087;-61
2023/07/10 02:44:16;;;;;;;38.75;27.35;;;;;;;22.24;94.98;101451.97;5039459;28;20082;-61
2023/07/10 02:46:42;;;;;;;35.17;24.42;;;;;;;22.22;94.92;101446.78;5035620;28;20709;-61
2023/07/10 02:49:07;;;;;;;29.05;24.13;;;;;;;22.17;93.88;101453.19;5039838;28;20090;-61
2023/07/10 02:51:32;;;;;;;33.00;24.15;;;;;;;22.12;94.20;101450.75;5038892;28;20716;-60
2023/07/10 02:53:58;;;;;;;32.60;22.75;;;;;;;22.09;94.50;101448.25;5039116;28;20137;-62
2023/07/10 02:56:23;;;;;;;30.63;22.40;;;;;;;22.03;94.60;101448.53;5040285;28;20072;-61
2023/07/10 02:58:50;;;;;;;34.42;26.02;;;;;;;21.99;94.57;101457.50;5039687;28;20556;-61
2023/07/10 03:01:15;;;;;;;31.85;25.75;;;;;;;21.97;94.85;101450.59;5041436;28;20025;-61
2023/07/10 03:03:45;;;;;;;32.17;22.98;;;;;;;21.97;95.11;101453.25;5042588;28;20061;-62
2023/07/10 03:06:11;;;;;;;33.97;24.92;;;;;;;21.95;95.07;101450.66;5040690;28;20044;-62
2023/07/10 03:08:36;;;;;;;34.72;27.38;;;;;;;21.93;95.08;101456.91;5033964;28;20041;-61
2023/07/10 03:11:09;;;;;;;36.10;28.60;;;;;;;21.91;94.97;101456.97;5036532;28;20119;-61
2023/07/10 03:13:34;;;;;;;40.70;28.02;;;;;;;21.87;94.69;101452.78;5028941;28;20565;-60
2023/07/10 03:16:08;;;;;;;33.15;25.98;;;;;;;21.82;94.90;101460.00;5036112;28;20037;-61
2023/07/10 03:18:34;;;;;;;34.60;26.65;;;;;;;21.76;94.46;101452.38;5042253;28;20064;-61
2023/07/10 03:20:59;;;;;;;31.08;24.65;;;;;;;21.68;94.70;101451.88;5037656;28;20628;-61
2023/07/10 03:23:24;;;;;;;32.28;26.42;;;;;;;21.64;93.93;101459.03;5035476;28;20037;-61
2023/07/10 03:25:50;;;;;;;38.25;27.60;;;;;;;21.60;94.45;101460.09;5038239;28;20039;-60
2023/07/10 03:28:15;;;;;;;31.23;24.27;;;;;;;21.57;94.62;101454.09;5034735;28;20455;-61
2023/07/10 03:30:41;;;;;;;32.60;26.02;;;;;;;21.54;94.61;101455.06;5037804;28;20048;-61
2023/07/10 03:33:06;;;;;;;37.55;27.02;;;;;;;21.49;94.50;101454.38;5037388;28;20037;-61
2023/07/10 03:35:32;;;;;;;35.00;27.98;;;;;;;21.42;94.71;101462.63;5032277;28;20074;-61
2023/07/10 03:37:58;;;;;;;37.17;29.63;;;;;;;21.39;94.92;101468.00;5038943;28;20037;-60
2023/07/10 03:40:23;;;;;;;41.88;30.55;;;;;;;21.34;94.69;101470.84;5044645;28;20067;-61
2023/07/10 03:42:49;;;;;;;39.13;29.13;;;;;;;21.35;94.33;101464.63;5048457;28;20064;-60
2023/07/10 03:45:14;;;;;;;39.22;29.30;;;;;;;21.35;94.41;101466.41;5040447;28;20677;-60
2023/07/10 03:47:39;;;;;;;41.10;29.23;;;;;;;21.35;94.19;101467.25;5039625;28;20474;-61
2023/07/10 03:50:05;;;;;;;34.28;26.95;;;;;;;21.36;94.00;101469.00;5041284;28;20037;-61
2023/07/10 03:52:31;;;;;;;35.83;28.40;;;;;;;21.37;93.37;101460.19;5036837;28;20616;-61
2023/07/10 03:54:56;;;;;;;35.78;27.50;;;;;;;21.37;93.31;101460.19;5036540;28;20170;-61
2023/07/10 03:57:22;;;;;;;33.60;26.65;;;;;;;21.39;93.09;101465.38;5044179;28;20033;-61
2023/07/10 03:59:47;;;;;;;41.47;31.00;;;;;;;21.37;93.05;101465.44;5038452;28;20036;-61
2023/07/10 04:02:12;;;;;;;40.38;30.50;;;;;;;21.38;92.99;101475.03;5043972;28;20032;-61
2023/07/10 04:04:38;;;;;;;30.45;25.13;;;;;;;21.41;93.04;101474.03;5042329;28;20021;-62
2023/07/10 04:07:03;;;;;;;33.22;27.00;;;;;;;21.43;92.88;101477.50;5037653;28;20064;-61
2023/07/10 04:09:29;;;;;;;36.97;27.58;;;;;;;21.40;92.66;101481.09;5036037;28;20045;-61
2023/07/10 04:11:54;;;;;;;38.15;28.05;;;;;;;21.39;92.04;101486.41;5040813;28;20533;-61
2023/07/10 04:14:19;;;;;;;34.65;27.45;;;;;;;21.36;92.28;101497.06;5040152;28;20041;-61
2023/07/10 04:16:52;;;;;;;36.75;27.77;;;;;;;21.37;92.19;101499.66;5036693;28;20029;-61
2023/07/10 04:19:18;;;;;;;35.85;27.48;;;;;;;21.36;92.07;101502.31;5036064;28;20041;-61
2023/07/10 04:21:43;;;;;;;38.10;26.95;;;;;;;21.35;92.15;101508.47;5043783;28;20041;-63
2023/07/10 04:24:09;;;;;;;36.63;27.23;;;;;;;21.33;92.24;101502.44;5039122;28;20067;-61
2023/07/10 04:26:35;;;;;;;33.95;27.63;;;;;;;21.31;92.12;101510.41;5038404;28;20730;-61
2023/07/10 04:29:04;;;;;;;40.08;29.58;;;;;;;21.30;91.89;101519.22;5032851;28;20086;-61
2023/07/10 04:31:29;;;;;;;35.22;26.63;;;;;;;21.30;91.84;101516.56;5038469;28;20087;-61
2023/07/10 04:33:56;;;;;;;42.50;27.20;;;;;;;21.30;91.68;101523.59;5037966;28;20119;-62
2023/07/10 04:36:21;;;;;;;37.35;27.95;;;;;;;21.24;91.21;101520.31;5036766;28;20048;-61
2023/07/10 04:38:49;;;;;;;30.17;24.20;;;;;;;21.23;91.11;101515.97;5037564;28;20029;-61
2023/07/10 04:41:17;;;;;;;31.65;25.30;;;;;;;21.27;90.68;101527.22;5041485;28;20024;-61
2023/07/10 04:43:43;;;;;;;31.75;23.92;;;;;;;21.26;90.21;101525.50;5038009;28;20041;-61
2023/07/10 04:46:14;;;;;;;38.92;24.65;;;;;;;21.28;90.05;101526.31;5037300;28;20045;-61
2023/07/10 04:48:39;;;;;;;36.40;24.35;;;;;;;21.29;89.91;101535.91;5031372;28;20041;-61
2023/07/10 04:51:07;;;;;;;37.70;26.10;;;;;;;21.31;89.50;101533.22;5033806;28;20122;-62
2023/07/10 04:53:33;;;;;;;41.78;24.63;;;;;;;21.29;89.41;101533.25;5034359;28;20489;-61
2023/07/10 04:56:04;;;;;;;39.50;24.08;;;;;;;21.31;89.63;101539.34;5033785;28;20033;-62
2023/07/10 04:58:48;;;;;;;39.67;23.48;;;;;;;21.31;89.21;101544.59;5037786;28;20048;-61
2023/07/10 05:01:13;;;;;;;36.60;22.65;;;;;;;21.31;88.99;101551.63;5037456;28;20067;-61
2023/07/10 05:03:39;;;;;;;32.22;21.98;;;;;;;21.28;88.74;101552.63;5035347;28;20123;-61
2023/07/10 05:06:04;;;;;;;29.67;21.08;;;;;;;21.23;88.56;101565.94;5031741;28;20171;-61
2023/07/10 05:08:29;;;;;;;30.67;20.92;;;;;;;21.20;88.98;101555.53;5030899;28;20065;-61
2023/07/10 05:10:56;;;;;;;32.85;20.92;;;;;;;21.20;88.83;101559.94;5036224;28;20040;-64
2023/07/10 05:13:26;;;;;;;32.63;20.00;;;;;;;21.21;88.47;101556.38;5032333;28;20820;-64
2023/07/10 05:15:53;;;;;;;32.15;20.33;;;;;;;21.20;88.02;101559.94;5038023;28;20044;-64
2023/07/10 05:18:18;;;;;;;30.98;19.42;;;;;;;21.23;87.75;101563.28;5035391;28;20726;-65
2023/07/10 05:20:46;;;;;;;27.95;17.98;;;;;;;21.23;87.29;101571.19;5033892;28;20040;-64
2023/07/10 05:23:11;;;;;;;27.35;18.58;;;;;;;21.24;87.39;101574.69;5034917;28;20448;-64
2023/07/10 05:25:37;;;;;;;31.17;18.45;;;;;;;21.25;87.06;101571.97;5040769;28;20021;-64
2023/07/10 05:28:04;;;;;;;25.67;17.00;;;;;;;21.27;87.08;101572.78;5033858;28;20033;-65
2023/07/10 05:30:29;;;;;;;26.70;17.10;;;;;;;21.28;87.22;101584.16;5036485;28;20049;-64
2023/07/10 05:32:55;;;;;;;30.60;18.27;;;;;;;21.23;87.04;101583.47;5039460;28;20033;-64
2023/07/10 05:35:21;;;;;;;35.03;19.50;;;;;;;21.23;87.26;101581.69;5042004;28;20406;-63
2023/07/10 05:37:47;;;;;;;37.85;20.40;;;;;;;21.23;87.27;101583.47;5033090;28;20997;-63
2023/07/10 05:40:13;;;;;;;34.08;19.90;;;;;;;21.26;87.21;101578.09;5035395;28;20051;-63
2023/07/10 05:42:39;;;;;;;31.00;19.90;;;;;;;21.32;86.44;101584.88;5039447;28;20041;-63
2023/07/10 05:45:05;;;;;;;32.47;18.13;;;;;;;21.36;85.97;101581.22;5041705;28;20080;-62
2023/07/10 05:47:31;;;;;;;31.10;18.95;;;;;;;21.35;85.41;101585.63;5043022;28;20083;-63
2023/07/10 05:49:56;;;;;;;28.48;18.70;;;;;;;21.33;85.22;101584.84;5039916;28;20144;-63
2023/07/10 05:52:22;;;;;;;26.10;17.52;;;;;;;21.36;85.20;101581.22;5032135;28;20863;-64
2023/07/10 05:54:47;;;;;;;23.73;14.60;;;;;;;21.45;84.81;101578.22;5033444;28;20044;-63
2023/07/10 05:57:12;;;;;;;22.73;14.30;;;;;;;21.45;84.46;101579.09;5039469;28;20048;-64
2023/07/10 05:59:38;;;;;;;26.50;13.75;;;;;;;21.46;84.41;101580.78;5039448;28;20041;-64
2023/07/10 06:02:03;;;;;;;23.65;14.50;;;;;;;21.48;84.93;101586.00;5043603;28;20091;-64
2023/07/10 06:04:28;;;;;;;24.58;14.30;;;;;;;21.46;84.58;101591.31;5030398;28;20048;-64
2023/07/10 06:06:54;;;;;;;26.50;13.52;;;;;;;21.41;84.27;101593.25;5035669;28;20048;-63
2023/07/10 06:09:19;;;;;;;25.10;14.18;;;;;;;21.36;84.10;101597.00;5041278;28;20033;-63
2023/07/10 06:11:45;;;;;;;21.23;12.45;;;;;;;21.31;84.16;101604.22;5036808;28;20568;-63
2023/07/10 06:14:10;;;;;;;23.13;10.85;;;;;;;21.30;83.79;101605.13;5045206;28;20934;-63
2023/07/10 06:16:35;;;;;;;20.13;11.10;;;;;;;21.24;82.91;101609.72;5041953;28;20078;-64
2023/07/10 06:19:01;;;;;;;17.23;10.25;;;;;;;21.24;82.97;101617.63;5038158;28;20119;-64
2023/07/10 06:21:26;;;;;;;14.98;9.13;;;;;;;21.27;82.62;101617.50;5035846;28;20810;-63
2023/07/10 06:23:51;;;;;;;22.92;10.25;;;;;;;21.33;82.00;101616.41;5034317;28;20128;-63
2023/07/10 06:26:17;;;;;;;19.27;9.60;;;;;;;21.38;81.57;101598.66;5033345;28;20041;-63
2023/07/10 06:28:42;;;;;;;18.70;10.00;;;;;;;21.47;81.27;101611.44;5035555;28;20040;-63
2023/07/10 06:31:10;;;;;;;25.13;11.10;;;;;;;21.59;80.75;101612.75;5036359;28;20405;-63
2023/07/10 06:33:36;;;;;;;17.48;9.73;;;;;;;21.65;80.17;101601.97;5037216;28;20048;-63
2023/07/10 06:36:04;;;;;;;21.33;9.63;;;;;;;21.90;79.49;101597.44;5030459;28;20036;-63
2023/07/10 06:38:29;;;;;;;21.90;9.23;;;;;;;21.99;79.34;101601.44;5031447;28;20747;-63
2023/07/10 06:40:55;;;;;;;15.30;9.35;;;;;;;22.14;78.65;101606.06;5035838;28;20040;-63
2023/07/10 06:43:21;;;;;;;17.05;9.05;;;;;;;22.38;77.89;101609.41;5042503;28;20123;-63
2023/07/10 06:45:47;;;;;;;16.08;8.57;;;;;;;22.60;76.96;101603.16;5034185;28;20091;-63
2023/07/10 06:48:13;;;;;;;16.65;9.35;;;;;;;22.81;75.88;101604.81;5032624;28;20127;-63
2023/07/10 06:50:38;;;;;;;17.95;9.82;;;;;;;22.87;75.09;101604.53;5030233;28;20531;-63
2023/07/10 06:53:04;;;;;;;18.88;10.40;;;;;;;22.86;74.91;101612.50;5029510;28;20579;-62
2023/07/10 06:55:30;;;;;;;17.80;9.60;;;;;;;22.83;75.13;101618.78;5034981;28;20068;-64
2023/07/10 06:57:56;;;;;;;14.98;9.93;;;;;;;22.80;75.34;101624.19;5035448;28;20048;-63
2023/07/10 07:00:21;;;;;;;21.13;12.18;;;;;;;22.63;75.42;101625.88;5037339;28;20180;-63
2023/07/10 07:02:47;;;;;;;26.00;11.38;;;;;;;22.59;75.83;101633.06;5037689;28;20049;-64
2023/07/10 07:05:13;;;;;;;23.70;12.60;;;;;;;22.68;75.31;101624.75;5036906;28;20151;-64
2023/07/10 07:07:39;;;;;;;23.33;11.80;;;;;;;22.77;75.08;101615.56;5035710;28;20059;-64
2023/07/10 07:10:13;;;;;;;23.70;14.02;;;;;;;22.86;74.39;101620.41;5041794;28;20099;-63
2023/07/10 07:12:39;;;;;;;22.25;12.40;;;;;;;22.92;74.17;101625.41;5039162;28;20037;-64
2023/07/10 07:15:05;;;;;;;23.30;12.30;;;;;;;22.95;74.15;101633.19;5043226;28;20037;-64
2023/07/10 07:17:31;;;;;;;26.05;11.75;;;;;;;23.06;74.50;101638.84;5038950;28;20029;-64
2023/07/10 07:19:56;;;;;;;16.88;10.98;;;;;;;23.16;74.16;101629.56;5040511;28;20078;-64
2023/07/10 07:22:21;;;;;;;17.75;11.00;;;;;;;23.28;73.03;101628.16;5038723;28;20048;-64
2023/07/10 07:24:47;;;;;;;16.42;10.93;;;;;;;23.38;72.71;101621.53;5040553;28;20111;-64
2023/07/10 07:27:12;;;;;;;18.80;10.48;;;;;;;23.52;72.42;101621.72;5035608;28;20198;-65
2023/07/10 07:29:37;;;;;;;23.27;11.55;;;;;;;23.61;71.79;101628.31;5042890;28;20045;-64
2023/07/10 07:32:03;;;;;;;19.63;10.20;;;;;;;23.71;71.15;101626.97;5043411;28;20033;-65
2023/07/10 07:34:29;;;;;;;21.00;10.73;;;;;;;23.71;70.99;101617.25;5051981;28;20041;-64
2023/07/10 07:36:54;;;;;;;19.05;11.10;;;;;;;23.83;70.92;101623.72;5041704;28;20482;-64
2023/07/10 07:39:27;;;;;;;17.67;10.60;;;;;;;23.84;70.49;101618.34;5041997;28;20033;-64
2023/07/10 07:41:53;;;;;;;17.93;10.77;;;;;;;23.90;69.86;101606.63;5042709;28;20033;-64
2023/07/10 07:44:18;;;;;;;21.08;10.63;;;;;;;23.97;69.82;101619.47;5043047;28;20851;-63
2023/07/10 07:46:44;;;;;;;20.67;9.80;;;;;;;24.02;69.17;101607.84;5043513;28;20091;-64
2023/07/10 07:49:09;;;;;;;18.30;10.38;;;;;;;24.16;68.99;101615.91;5040601;28;20076;-64
2023/07/10 07:51:36;;;;;;;15.90;9.82;;;;;;;24.24;68.41;101614.59;5039701;28;20036;-64
2023/07/10 07:54:13;;;;;;;18.85;9.05;;;;;;;24.28;68.06;101610.00;5042384;28;20782;-63
2023/07/10 07:56:38;;;;;;;21.25;9.88;;;;;;;24.39;68.06;101613.78;5039713;28;21619;-64
2023/07/10 07:59:04;;;;;;;19.42;10.43;;;;;;;24.40;67.74;101618.13;5044666;28;20028;-63
2023/07/10 08:01:30;;;;;;;16.80;9.32;;;;;;;24.44;67.10;101608.25;5044123;28;20068;-64
2023/07/10 08:03:56;;;;;;;16.42;9.88;;;;;;;24.36;67.03;101623.66;5038839;28;20150;-63
2023/07/10 08:06:22;;;;;;;14.98;8.80;;;;;;;24.11;67.59;101629.34;5040198;28;20037;-63
2023/07/10 08:08:47;;;;;;;15.07;9.02;;;;;;;23.84;68.74;101649.16;5039714;28;20048;-63
2023/07/10 08:11:16;;;;;;;12.25;6.53;;;;;;;23.92;69.26;101644.38;5037986;28;20048;-63
2023/07/10 08:13:41;;;;;;;12.88;6.32;;;;;;;24.06;69.18;101636.66;5038142;28;20717;-64
2023/07/10 08:16:06;;;;;;;12.25;7.07;;;;;;;24.30;67.81;101618.69;5042239;28;20037;-64
2023/07/10 08:18:32;;;;;;;10.40;6.93;;;;;;;24.32;66.67;101611.53;5040111;28;20409;-63
2023/07/10 08:21:05;;;;;;;11.82;7.32;;;;;;;24.39;65.77;101602.34;5042358;28;20832;-64
2023/07/10 08:23:31;;;;;;;10.27;7.00;;;;;;;24.54;65.85;101610.34;5036545;28;20072;-64
2023/07/10 08:25:57;;;;;;;13.40;7.82;;;;;;;24.54;65.23;101604.19;5042686;28;20644;-64
2023/07/10 08:28:22;;;;;;;10.93;6.63;;;;;;;24.67;65.25;101605.25;5040425;28;20045;-63
2023/07/10 08:30:47;;;;;;;11.93;7.25;;;;;;;24.86;64.42;101607.78;5039661;28;20041;-64
2023/07/10 08:33:13;;;;;;;13.98;7.07;;;;;;;25.03;64.61;101605.94;5042433;28;20567;-64
2023/07/10 08:35:38;;;;;;;12.98;7.20;;;;;;;25.01;63.05;101591.09;5048422;28;20040;-64
2023/07/10 08:38:05;;;;;;;15.82;7.22;;;;;;;25.01;62.73;101591.09;5041656;28;20033;-63
2023/07/10 08:40:33;;;;;;;11.10;6.57;;;;;;;25.14;62.85;101596.56;5042001;28;20021;-63
2023/07/10 08:43:08;;;;;;;11.73;6.55;;;;;;;25.12;62.71;101599.28;5044623;28;20239;-63
2023/07/10 08:45:36;;;;;;;13.32;6.97;;;;;;;25.22;61.84;101578.44;5041480;28;20041;-64
2023/07/10 08:48:29;;;;;;;12.00;7.05;;;;;;;25.14;62.67;101578.91;5039816;28;20044;-64
2023/07/10 08:50:58;;;;;;;10.38;5.65;;;;;;;25.31;62.32;101583.22;5032197;28;20548;-65
2023/07/10 08:53:30;;;;;;;12.13;6.00;;;;;;;25.17;62.30;101585.81;5043380;28;20044;-64
2023/07/10 08:55:58;;;;;;;10.27;6.47;;;;;;;24.95;62.05;101580.84;5041981;28;20110;-64
2023/07/10 08:58:27;;;;;;;12.40;6.30;;;;;;;25.00;61.28;101565.56;5044483;28;20116;-63
2023/07/10 09:00:59;;;;;;;11.80;5.63;;;;;;;25.11;60.95;101549.09;5047570;28;20505;-63
2023/07/10 09:04:01;;;;;;;10.77;5.40;;;;;;;25.21;61.16;101551.13;5037540;28;20037;-63
2023/07/10 09:06:37;;;;;;;8.73;4.97;;;;;;;25.47;59.56;101525.88;5023465;28;20185;-63
2023/07/10 09:09:12;;;;;;;10.68;4.70;;;;;;;25.48;59.75;101543.44;5045977;28;20033;-62
2023/07/10 09:11:38;;;;;;;13.32;4.90;;;;;;;25.19;59.19;101531.84;5044950;28;20047;-62
2023/07/10 09:14:35;;;;;;;8.98;4.40;;;;;;;25.42;59.67;101549.09;5045298;28;20029;-63
2023/07/10 09:17:02;;;;;;;7.85;3.53;;;;;;;25.56;58.42;101526.16;5040343;28;20199;-62
2023/07/10 09:19:30;;;;;;;6.63;3.55;;;;;;;25.77;56.62;101505.50;5040023;28;20037;-62
2023/07/10 09:21:55;;;;;;;5.18;3.33;;;;;;;25.57;57.05;101516.44;5040515;28;20681;-62
2023/07/10 09:24:22;;;;;;;7.55;3.53;;;;;;;25.72;55.72;101504.06;5038604;28;20048;-63
2023/07/10 09:26:48;;;;;;;8.50;3.08;;;;;;;25.93;54.49;101498.34;5040391;28;20106;-62
2023/07/10 09:29:14;;;;;;;6.50;3.22;;;;;;;25.99;53.89;101481.22;5040131;28;20033;-62
2023/07/10 09:32:00;;;;;;;5.88;2.95;;;;;;;25.89;54.61;101509.22;5042865;28;20033;-62
2023/07/10 09:34:31;;;;;;;5.97;3.05;;;;;;;25.81;53.73;101501.72;5036647;28;20029;-63
2023/07/10 09:36:58;;;;;;;8.68;2.83;;;;;;;25.83;54.86;101522.84;5038905;28;20470;-62
2023/07/10 09:39:28;;;;;;;6.70;2.70;;;;;;;25.73;53.84;101500.50;5036927;28;20081;-63
2023/07/10 09:41:58;;;;;;;8.23;2.38;;;;;;;25.63;54.08;101511.63;5038999;28;20110;-62
2023/07/10 09:44:33;;;;;;;6.20;2.95;;;;;;;25.58;54.86;101529.59;5039564;28;20045;-62
2023/07/10 09:47:09;;;;;;;5.68;2.75;;;;;;;25.75;53.47;101503.91;5039107;28;20025;-63
2023/07/10 09:49:41;;;;;;;5.90;2.70;;;;;;;25.92;52.51;101486.03;5036838;28;20044;-62
2023/07/10 09:52:24;;;;;;;5.85;2.50;;;;;;;25.85;51.57;101460.88;5036757;28;20037;-62
2023/07/10 09:55:01;;;;;;;8.68;2.88;;;;;;;26.22;51.65;101471.88;5039070;28;20045;-63
2023/07/10 09:57:27;;;;;;;7.88;2.30;;;;;;;26.54;50.88;101466.25;5038505;28;20073;-62
2023/07/10 09:59:55;;;;;;;5.57;2.30;;;;;;;26.73;49.26;101440.28;5040501;28;20496;-62
2023/07/10 10:02:42;;;;;;;8.50;2.47;;;;;;;26.89;49.05;101442.81;5035425;28;20560;-62
2023/07/10 10:05:10;;;;;;;4.80;2.10;;;;;;;26.85;49.08;101438.66;5037017;28;20055;-62
2023/07/10 10:07:40;;;;;;;3.17;1.73;;;;;;;26.98;48.96;101438.72;5040094;28;20033;-63
2023/07/10 10:10:20;;;;;;;5.55;1.80;;;;;;;26.96;49.00;101449.41;5039777;28;20544;-62
2023/07/10 10:12:51;;;;;;;3.17;1.85;;;;;;;26.75;48.53;101444.66;5038854;28;20037;-62
2023/07/10 10:15:47;;;;;;;6.30;2.30;;;;;;;26.81;47.10;101417.75;5041405;28;20691;-62
2023/07/10 10:18:29;;;;;;;4.53;2.00;;;;;;;26.55;48.71;101453.88;5035115;28;20079;-63
2023/07/10 10:20:55;;;;;;;9.70;2.10;;;;;;;26.59;48.38;101452.72;5039004;28;20128;-61
2023/07/10 10:23:32;;;;;;;5.28;1.92;;;;;;;26.42;48.73;101452.97;5033981;28;20033;-63
2023/07/10 10:26:10;;;;;;;2.70;1.83;;;;;;;26.38;46.73;101425.78;5046322;28;20052;-63
2023/07/10 10:29:04;;;;;;;5.95;1.73;;;;;;;26.23;48.44;101449.75;5041825;28;20047;-63
2023/07/10 10:31:42;;;;;;;3.40;1.70;;;;;;;26.13;48.06;101450.31;5041382;28;20064;-63
2023/07/10 10:34:41;;;;;;;4.22;1.70;;;;;;;26.05;48.66;101451.72;5044952;28;20040;-63
2023/07/10 10:37:24;;;;;;;3.47;1.67;;;;;;;25.86;47.27;101430.78;5042865;28;20043;-63
2023/07/10 10:40:14;;;;;;;4.55;1.80;;;;;;;26.03;47.17;101425.31;5039061;28;20053;-63
2023/07/10 10:43:18;;;;;;;5.65;1.70;;;;;;;26.40;46.64;101412.41;5035064;28;20041;-63
2023/07/10 10:45:51;;;;;;;4.05;1.75;;;;;;;26.58;45.52;101404.13;5044394;28;20040;-63
2023/07/10 10:48:30;;;;;;;5.10;1.95;;;;;;;26.88;45.88;101400.47;5041850;28;20037;-63
2023/07/10 10:51:14;;;;;;;5.47;2.00;;;;;;;26.97;45.24;101403.38;5037622;28;20051;-62
2023/07/10 10:54:19;;;;;;;3.40;1.63;;;;;;;26.88;46.19;101419.88;5036443;28;20048;-63
2023/07/10 10:57:08;;;;;;;3.67;1.70;;;;;;;27.05;45.13;101400.19;5043305;28;20402;-62
2023/07/10 10:59:58;;;;;;;3.60;1.40;;;;;;;27.14;44.15;101384.50;5033646;28;20452;-62
2023/07/10 11:03:01;;;;;;;5.22;1.70;;;;;;;27.22;44.05;101376.84;5037375;28;20049;-62
2023/07/10 11:05:42;;;;;;;3.53;2.03;;;;;;;27.10;44.40;101379.50;5039342;28;20037;-63
2023/07/10 11:08:40;;;;;;;7.85;1.83;;;;;;;27.30;43.58;101352.47;5035521;28;20040;-62
2023/07/10 11:11:26;;;;;;;4.72;1.80;;;;;;;27.43;43.14;101347.16;5028750;28;20500;-62
2023/07/10 11:13:52;;;;;;;5.82;1.98;;;;;;;27.52;43.07;101341.25;5035685;28;20163;-62
2023/07/10 11:16:17;;;;;;;3.83;1.73;;;;;;;27.53;42.55;101322.53;5034305;28;20625;-63
2023/07/10 11:18:44;;;;;;;4.82;1.80;;;;;;;27.63;42.73;101323.59;5036519;28;20102;-63
2023/07/10 11:21:10;;;;;;;5.97;2.20;;;;;;;27.77;42.37;101323.47;5041090;28;20044;-62
2023/07/10 11:23:41;;;;;;;4.22;1.95;;;;;;;27.92;42.03;101333.94;5038163;28;20048;-63